createdAt,value
2022-10-13T00:02:17.940Z,1
2022-10-13T00:12:17.848Z,1
2022-10-13T00:22:17.878Z,1
2022-10-13T00:32:17.911Z,1
2022-10-13T00:42:18.101Z,1
2022-10-13T00:52:17.936Z,1
2022-10-13T01:02:18.122Z,1
2022-10-13T01:12:17.972Z,1
2022-10-13T01:22:18.021Z,1
2022-10-13T01:32:17.892Z,1
2022-10-13T01:42:17.981Z,1
2022-10-13T01:52:17.946Z,1
2022-10-13T02:02:18.074Z,1
2022-10-13T02:12:18.066Z,1
2022-10-13T02:22:18.061Z,1
2022-10-13T02:32:17.997Z,1
2022-10-13T02:42:18.167Z,1
2022-10-13T02:52:18.221Z,1
2022-10-13T03:02:18.067Z,1
2022-10-13T03:12:18.149Z,1
2022-10-13T03:22:18.152Z,1
2022-10-13T03:32:18.278Z,1
2022-10-13T03:42:18.335Z,1
2022-10-13T03:52:18.228Z,1
2022-10-13T04:02:18.286Z,1
2022-10-13T04:12:20.760Z,1
2022-10-13T04:22:18.339Z,1
2022-10-13T04:32:18.202Z,1
2022-10-13T04:42:18.361Z,1
2022-10-13T04:52:18.130Z,1
2022-10-13T05:02:18.405Z,1
2022-10-13T05:12:18.394Z,1
2022-10-13T05:22:18.396Z,1
2022-10-13T05:32:18.419Z,1
2022-10-13T05:42:18.289Z,1
2022-10-13T05:52:18.365Z,1
2022-10-13T06:02:18.267Z,3
2022-10-13T06:12:18.238Z,13
2022-10-13T06:22:18.265Z,34
2022-10-13T06:32:18.286Z,57
2022-10-13T06:42:18.357Z,72
2022-10-13T06:52:18.312Z,81
2022-10-13T07:02:18.533Z,86
2022-10-13T07:12:18.442Z,88
2022-10-13T07:22:18.155Z,90
2022-10-13T07:32:17.995Z,90
2022-10-13T07:42:18.149Z,92
2022-10-13T07:52:18.538Z,92
2022-10-13T08:02:18.378Z,93
2022-10-13T08:12:18.496Z,95
2022-10-13T08:22:18.126Z,95
2022-10-13T08:32:18.490Z,95
2022-10-13T08:42:18.400Z,95
2022-10-13T08:52:18.563Z,96
2022-10-13T09:02:18.207Z,96
2022-10-13T09:12:18.504Z,96
2022-10-13T09:22:18.736Z,96
2022-10-13T09:32:18.549Z,96
2022-10-13T09:42:18.536Z,96
2022-10-13T09:52:18.458Z,96
2022-10-13T10:02:19.483Z,96
2022-10-13T10:12:18.174Z,96
2022-10-13T10:22:18.423Z,96
2022-10-13T10:32:18.447Z,96
2022-10-13T10:42:18.561Z,96
2022-10-13T10:52:18.371Z,96
2022-10-13T11:02:18.706Z,96
2022-10-13T11:12:18.569Z,96
2022-10-13T11:22:18.685Z,96
2022-10-13T11:32:18.737Z,96
2022-10-13T11:42:18.547Z,96
2022-10-13T11:52:18.802Z,96
2022-10-13T12:02:19.310Z,96
2022-10-13T12:12:18.826Z,96
2022-10-13T12:22:18.344Z,96
2022-10-13T12:32:18.442Z,96
2022-10-13T12:42:18.376Z,96
2022-10-13T12:52:18.716Z,95
2022-10-13T13:02:18.744Z,96
2022-10-13T13:12:18.770Z,95
2022-10-13T13:22:18.798Z,96
2022-10-13T13:32:20.197Z,95
2022-10-13T13:42:18.465Z,95
2022-10-13T13:52:18.536Z,95
2022-10-13T14:02:18.467Z,94
2022-10-13T14:12:18.858Z,94
2022-10-13T14:22:18.569Z,94
2022-10-13T14:32:18.650Z,94
2022-10-13T14:42:18.564Z,94
2022-10-13T14:52:18.465Z,93
2022-10-13T15:02:18.612Z,93
2022-10-13T15:12:18.872Z,93
2022-10-13T15:22:18.988Z,93
2022-10-13T15:32:18.916Z,93
2022-10-13T15:42:18.863Z,93
2022-10-13T15:52:19.155Z,92
2022-10-13T16:02:18.994Z,92
2022-10-13T16:12:19.080Z,91
2022-10-13T16:22:19.128Z,91
2022-10-13T16:32:19.080Z,89
2022-10-13T16:42:18.717Z,88
2022-10-13T16:52:18.595Z,84
2022-10-13T17:02:18.721Z,79
2022-10-13T17:12:18.587Z,70
2022-10-13T17:22:18.708Z,56
2022-10-13T17:32:18.606Z,35
2022-10-13T17:42:18.712Z,14
2022-10-13T17:52:18.832Z,3
2022-10-13T18:02:18.949Z,1
2022-10-13T18:12:18.922Z,1
2022-10-13T18:22:18.874Z,1
2022-10-13T18:32:18.892Z,1
2022-10-13T18:42:18.837Z,1
2022-10-13T18:52:18.934Z,1
2022-10-13T19:02:19.029Z,1
2022-10-13T19:12:18.782Z,1
2022-10-13T19:22:18.932Z,1
2022-10-13T19:32:18.793Z,1
2022-10-13T19:42:18.853Z,1
2022-10-13T19:52:18.929Z,1
2022-10-13T20:02:18.860Z,1
2022-10-13T20:12:18.903Z,1
2022-10-13T20:22:18.836Z,1
2022-10-13T20:32:18.766Z,1
2022-10-13T20:42:18.896Z,1
2022-10-13T20:52:18.980Z,1
2022-10-13T21:02:18.911Z,1
2022-10-13T21:12:18.961Z,1
2022-10-13T21:22:18.871Z,1
2022-10-13T21:32:18.949Z,1
2022-10-13T21:42:18.873Z,1
2022-10-13T21:52:18.950Z,1
2022-10-13T22:02:19.078Z,1
2022-10-13T22:12:18.939Z,1
2022-10-13T22:22:19.070Z,1
2022-10-13T22:32:18.939Z,1
2022-10-13T22:42:19.070Z,1
2022-10-13T22:52:19.019Z,1
2022-10-13T23:02:19.139Z,1
2022-10-13T23:22:19.003Z,1
2022-10-13T23:32:19.075Z,1
2022-10-13T23:42:19.013Z,1
2022-10-13T23:52:19.084Z,1
